createdAt,value
2017-08-11T00:00:10.746Z,17.49
2017-08-11T00:01:20.106Z,17.41
2017-08-11T00:02:28.986Z,17.48
2017-08-11T00:03:37.868Z,17.44
2017-08-11T00:04:47.072Z,17.41
2017-08-11T00:05:56.338Z,17.38
2017-08-11T00:07:06.165Z,17.51
2017-08-11T00:08:16.016Z,17.38
2017-08-11T00:09:24.903Z,17.38
2017-08-11T00:10:34.432Z,17.49
2017-08-11T00:11:43.641Z,17.48
2017-08-11T00:12:52.824Z,17.33
2017-08-11T00:14:02.357Z,17.3
2017-08-11T00:15:12.211Z,17.28
2017-08-11T00:16:21.745Z,17.25
2017-08-11T00:17:31.281Z,17.34
2017-08-11T00:18:40.816Z,17.33
2017-08-11T00:19:50.023Z,17.23
2017-08-11T00:20:59.228Z,17.19
2017-08-11T00:22:08.432Z,17.33
2017-08-11T00:23:17.965Z,17.3
2017-08-11T00:24:27.151Z,17.31
2017-08-11T00:25:37.007Z,17.22
2017-08-11T00:26:46.536Z,17.28
2017-08-11T00:27:56.061Z,17.26
2017-08-11T00:29:05.593Z,17.31
2017-08-11T00:30:15.000Z,17.3
2017-08-11T00:31:24.853Z,17.22
2017-08-11T00:32:34.060Z,17.14
2017-08-11T00:33:42.962Z,17.31
2017-08-11T00:34:51.847Z,17.36
2017-08-11T00:36:01.052Z,17.26
2017-08-11T00:37:10.582Z,17.19
2017-08-11T00:38:20.122Z,17.16
2017-08-11T00:39:29.327Z,17.21
2017-08-11T00:40:38.855Z,17.16
2017-08-11T00:41:48.592Z,17.11
2017-08-11T00:42:58.449Z,17.08
2017-08-11T00:44:07.660Z,17.15
2017-08-11T00:45:17.517Z,17.11
2017-08-11T00:46:27.379Z,17.06
2017-08-11T00:47:36.910Z,17.06
2017-08-11T00:48:46.116Z,17.08
2017-08-11T00:49:55.650Z,17.11
2017-08-11T00:51:05.186Z,17.04
2017-08-11T00:52:15.367Z,17.06
2017-08-11T00:53:25.196Z,17.19
2017-08-11T00:54:34.726Z,17.07
2017-08-11T00:55:43.929Z,17.26
2017-08-11T00:56:53.138Z,17.19
2017-08-11T00:58:02.347Z,17.12
2017-08-11T00:59:11.703Z,17.06
2017-08-11T01:00:20.935Z,17.15
2017-08-11T01:01:30.796Z,17.03
2017-08-11T01:02:40.646Z,17.07
2017-08-11T01:03:49.853Z,17.07
2017-08-11T01:04:59.363Z,17.08
2017-08-11T01:06:08.568Z,17.12
2017-08-11T01:07:18.096Z,17.07
2017-08-11T01:08:27.952Z,17.18
2017-08-11T01:09:36.850Z,17.01
2017-08-11T01:10:46.680Z,17
2017-08-11T01:11:56.209Z,17
2017-08-11T01:13:05.750Z,17.04
2017-08-11T01:14:14.951Z,17.18
2017-08-11T01:15:24.485Z,17.08
2017-08-11T01:16:34.495Z,17.06
2017-08-11T01:17:43.378Z,17.04
2017-08-11T01:18:52.597Z,17
2017-08-11T01:20:02.132Z,16.91
2017-08-11T01:21:11.658Z,16.86
2017-08-11T01:22:21.240Z,16.76
2017-08-11T01:23:30.771Z,16.91
2017-08-11T01:24:40.299Z,16.91
2017-08-11T01:25:50.187Z,16.96
2017-08-11T01:26:59.076Z,16.88
2017-08-11T01:28:08.672Z,16.89
2017-08-11T01:29:17.936Z,16.94
2017-08-11T01:30:27.481Z,16.91
2017-08-11T01:31:37.018Z,16.83
2017-08-11T01:32:45.908Z,16.91
2017-08-11T01:33:54.938Z,16.94
2017-08-11T01:35:04.797Z,16.89
2017-08-11T01:36:13.681Z,16.88
2017-08-11T01:37:23.538Z,16.88
2017-08-11T01:38:33.715Z,16.88
2017-08-11T01:39:44.001Z,16.76
2017-08-11T01:40:53.531Z,16.75
2017-08-11T01:42:02.410Z,16.56
2017-08-11T01:43:12.592Z,16.6
2017-08-11T01:44:22.449Z,16.43
2017-08-11T01:45:31.753Z,16.38
2017-08-11T01:46:40.957Z,16.3
2017-08-11T01:47:50.486Z,16.23
2017-08-11T01:48:59.372Z,16.39
2017-08-11T01:50:09.224Z,16.45
2017-08-11T01:51:18.808Z,16.34
2017-08-11T01:52:27.698Z,16.34
2017-08-11T01:53:37.229Z,16.24
2017-08-11T01:54:46.435Z,16.25
2017-08-11T01:55:55.317Z,16.24
2017-08-11T01:57:04.246Z,16.25
2017-08-11T01:58:13.453Z,16.27
2017-08-11T01:59:22.667Z,16.23
2017-08-11T02:00:32.205Z,16.38
2017-08-11T02:01:42.055Z,16.33
2017-08-11T02:02:51.314Z,16.38
2017-08-11T02:04:01.175Z,16.25
2017-08-11T02:05:10.707Z,16.31
2017-08-11T02:06:20.236Z,16.34
2017-08-11T02:07:29.454Z,16.41
2017-08-11T02:08:39.137Z,16.28
2017-08-11T02:09:48.669Z,16.21
2017-08-11T02:10:58.841Z,16.17
2017-08-11T02:12:08.051Z,16.3
2017-08-11T02:13:17.903Z,16.17
2017-08-11T02:14:27.311Z,16.12
2017-08-11T02:15:36.192Z,16.17
2017-08-11T02:16:46.054Z,16.17
2017-08-11T02:17:55.589Z,16.11
2017-08-11T02:19:05.761Z,16.15
2017-08-11T02:20:15.307Z,16.12
2017-08-11T02:21:24.518Z,15.97
2017-08-11T02:22:34.366Z,16.07
2017-08-11T02:23:43.897Z,16.01
2017-08-11T02:24:53.747Z,15.94
2017-08-11T02:26:02.783Z,15.96
2017-08-11T02:27:12.634Z,15.97
2017-08-11T02:28:22.187Z,16.08
2017-08-11T02:29:31.413Z,16.11
2017-08-11T02:30:41.266Z,16.15
2017-08-11T02:31:51.499Z,16.15
2017-08-11T02:33:01.359Z,16.04
2017-08-11T02:34:11.215Z,16.01
2017-08-11T02:35:20.750Z,16.01
2017-08-11T02:36:30.925Z,15.93
2017-08-11T02:37:40.878Z,16.04
2017-08-11T02:38:50.410Z,15.93
2017-08-11T02:39:59.625Z,16
2017-08-11T02:41:09.152Z,16.04
2017-08-11T02:42:18.683Z,15.93
2017-08-11T02:43:28.636Z,15.96
2017-08-11T02:44:37.849Z,15.96
2017-08-11T02:45:47.382Z,16
2017-08-11T02:46:56.915Z,16
2017-08-11T02:48:06.125Z,15.94
2017-08-11T02:49:15.809Z,15.94
2017-08-11T02:50:25.339Z,15.9
2017-08-11T02:51:34.870Z,15.92
2017-08-11T02:52:44.404Z,15.93
2017-08-11T02:53:53.616Z,15.92
2017-08-11T02:55:03.447Z,15.92
2017-08-11T02:56:13.299Z,16
2017-08-11T02:57:22.181Z,15.93
2017-08-11T02:58:31.063Z,15.94
2017-08-11T02:59:40.268Z,15.94
2017-08-11T03:00:49.576Z,15.93
2017-08-11T03:01:58.785Z,15.84
2017-08-11T03:03:08.315Z,15.84
2017-08-11T03:04:17.847Z,15.84
2017-08-11T03:05:27.054Z,15.89
2017-08-11T03:06:36.407Z,15.89
2017-08-11T03:07:45.940Z,15.83
2017-08-11T03:08:55.148Z,15.94
2017-08-11T03:10:04.362Z,15.96
2017-08-11T03:11:13.571Z,15.94
2017-08-11T03:12:22.780Z,15.94
2017-08-11T03:13:31.991Z,15.92
2017-08-11T03:14:41.849Z,16
2017-08-11T03:15:51.705Z,15.86
2017-08-11T03:17:00.917Z,15.84
2017-08-11T03:18:10.502Z,15.82
2017-08-11T03:19:19.383Z,15.83
2017-08-11T03:20:28.591Z,15.86
2017-08-11T03:21:37.475Z,15.78
2017-08-11T03:22:46.359Z,15.82
2017-08-11T03:23:55.763Z,15.87
2017-08-11T03:25:04.969Z,15.78
2017-08-11T03:26:14.500Z,15.83
2017-08-11T03:27:23.709Z,15.75
2017-08-11T03:28:33.240Z,15.82
2017-08-11T03:29:42.422Z,15.84
2017-08-11T03:30:52.277Z,15.74
2017-08-11T03:32:02.141Z,15.68
2017-08-11T03:33:11.668Z,15.97
2017-08-11T03:34:21.521Z,15.89
2017-08-11T03:35:30.703Z,15.83
2017-08-11T03:36:39.910Z,15.68
2017-08-11T03:37:49.117Z,15.64
2017-08-11T03:38:58.646Z,15.71
2017-08-11T03:40:07.852Z,15.65
2017-08-11T03:41:17.212Z,15.65
2017-08-11T03:42:26.416Z,15.68
2017-08-11T03:43:35.949Z,15.62
2017-08-11T03:44:45.800Z,15.6
2017-08-11T03:45:55.975Z,15.62
2017-08-11T03:47:06.077Z,15.64
2017-08-11T03:48:15.936Z,15.68
2017-08-11T03:49:25.145Z,15.54
2017-08-11T03:50:34.677Z,15.62
2017-08-11T03:51:43.880Z,15.56
2017-08-11T03:52:53.760Z,15.64
2017-08-11T03:54:02.646Z,15.56
2017-08-11T03:55:11.853Z,15.53
2017-08-11T03:56:22.065Z,15.53
2017-08-11T03:57:31.271Z,15.56
2017-08-11T03:58:40.581Z,15.56
2017-08-11T03:59:49.463Z,15.54
2017-08-11T04:00:58.995Z,15.53
2017-08-11T04:02:08.547Z,15.53
2017-08-11T04:03:17.752Z,15.6
2017-08-11T04:04:27.753Z,15.56
2017-08-11T04:05:37.612Z,15.5
2017-08-11T04:06:46.820Z,15.53
2017-08-11T04:07:56.349Z,15.51
2017-08-11T04:09:05.876Z,15.53
2017-08-11T04:10:15.878Z,15.51
2017-08-11T04:11:24.757Z,15.57
2017-08-11T04:12:34.612Z,15.53
2017-08-11T04:13:44.140Z,15.54
2017-08-11T04:14:53.022Z,15.53
2017-08-11T04:16:03.355Z,15.53
2017-08-11T04:17:12.564Z,15.49
2017-08-11T04:18:22.093Z,15.5
2017-08-11T04:19:30.976Z,15.51
2017-08-11T04:20:40.181Z,15.54
2017-08-11T04:21:49.436Z,15.49
2017-08-11T04:22:58.642Z,15.49
2017-08-11T04:24:08.175Z,15.51
2017-08-11T04:25:17.062Z,15.51
2017-08-11T04:26:26.917Z,15.46
2017-08-11T04:27:36.597Z,15.49
2017-08-11T04:28:46.151Z,15.49
2017-08-11T04:29:55.038Z,15.49
2017-08-11T04:31:03.925Z,15.44
2017-08-11T04:32:13.131Z,15.46
2017-08-11T04:33:22.013Z,15.51
2017-08-11T04:34:31.544Z,15.57
2017-08-11T04:35:40.426Z,15.44
2017-08-11T04:36:49.954Z,15.57
2017-08-11T04:37:59.481Z,15.46
2017-08-11T04:39:09.594Z,15.46
2017-08-11T04:40:19.446Z,15.53
2017-08-11T04:41:28.661Z,15.49
2017-08-11T04:42:38.226Z,15.54
2017-08-11T04:43:47.777Z,15.39
2017-08-11T04:44:57.612Z,15.49
2017-08-11T04:46:06.520Z,15.38
2017-08-11T04:47:16.055Z,15.34
2017-08-11T04:48:25.588Z,15.38
2017-08-11T04:49:35.116Z,15.44
2017-08-11T04:50:44.048Z,15.25
2017-08-11T04:51:52.931Z,15.39
2017-08-11T04:53:02.786Z,15.36
2017-08-11T04:54:12.321Z,15.27
2017-08-11T04:55:21.530Z,15.36
2017-08-11T04:56:31.380Z,15.29
2017-08-11T04:57:40.912Z,15.28
2017-08-11T04:58:50.441Z,15.28
2017-08-11T04:59:59.973Z,15.29
2017-08-11T05:01:09.183Z,15.29
2017-08-11T05:02:19.947Z,15.31
2017-08-11T05:03:29.497Z,15.23
2017-08-11T05:04:39.035Z,15.31
2017-08-11T05:05:48.300Z,15.09
2017-08-11T05:06:57.832Z,15.19
2017-08-11T05:08:07.421Z,15.1
2017-08-11T05:09:16.310Z,15.09
2017-08-11T05:10:26.173Z,15.1
2017-08-11T05:11:35.066Z,15.11
2017-08-11T05:12:44.281Z,15.16
2017-08-11T05:13:54.282Z,15.09
2017-08-11T05:15:03.488Z,14.99
2017-08-11T05:16:13.022Z,15.01
2017-08-11T05:17:21.906Z,14.98
2017-08-11T05:18:30.796Z,14.96
2017-08-11T05:19:40.476Z,14.98
2017-08-11T05:20:50.328Z,14.92
2017-08-11T05:21:59.547Z,14.96
2017-08-11T05:23:08.437Z,14.8
2017-08-11T05:24:17.645Z,14.8
2017-08-11T05:25:27.499Z,14.81
2017-08-11T05:26:37.028Z,14.8
2017-08-11T05:27:46.564Z,14.77
2017-08-11T05:28:56.089Z,14.8
2017-08-11T05:30:05.302Z,14.78
2017-08-11T05:31:15.312Z,14.75
2017-08-11T05:32:24.847Z,14.72
2017-08-11T05:33:34.055Z,14.61
2017-08-11T05:34:43.263Z,14.68
2017-08-11T05:35:52.466Z,14.64
2017-08-11T05:37:02.196Z,14.69
2017-08-11T05:38:11.402Z,14.75
2017-08-11T05:39:20.606Z,14.75
2017-08-11T05:40:29.490Z,14.69
2017-08-11T05:41:38.697Z,14.73
2017-08-11T05:42:47.730Z,14.68
2017-08-11T05:43:57.263Z,14.73
2017-08-11T05:45:07.115Z,14.72
2017-08-11T05:46:16.647Z,14.68
2017-08-11T05:47:25.855Z,14.61
2017-08-11T05:48:35.066Z,14.65
2017-08-11T05:49:44.913Z,14.64
2017-08-11T05:50:54.124Z,14.65
2017-08-11T05:52:03.327Z,14.61
2017-08-11T05:53:12.210Z,14.55
2017-08-11T05:54:21.516Z,14.64
2017-08-11T05:55:30.402Z,14.62
2017-08-11T05:56:39.610Z,14.69
2017-08-11T05:57:48.815Z,14.68
2017-08-11T05:58:58.030Z,14.6
2017-08-11T06:00:07.547Z,14.7
2017-08-11T06:01:16.431Z,14.51
2017-08-11T06:02:25.960Z,14.62
2017-08-11T06:03:35.164Z,14.51
2017-08-11T06:04:44.693Z,14.5
2017-08-11T06:05:54.003Z,14.64
2017-08-11T06:07:03.533Z,14.72
2017-08-11T06:08:12.741Z,14.62
2017-08-11T06:09:22.600Z,14.81
2017-08-11T06:10:32.781Z,14.7
2017-08-11T06:11:42.685Z,14.72
2017-08-11T06:12:52.894Z,14.69
2017-08-11T06:14:02.099Z,14.64
2017-08-11T06:15:11.958Z,14.54
2017-08-11T06:16:21.168Z,14.65
2017-08-11T06:17:30.812Z,14.69
2017-08-11T06:18:40.019Z,14.73
2017-08-11T06:19:49.871Z,14.7
2017-08-11T06:20:59.407Z,14.7
2017-08-11T06:22:08.938Z,14.65
2017-08-11T06:23:18.448Z,14.72
2017-08-11T06:24:27.658Z,14.73
2017-08-11T06:25:37.064Z,14.65
2017-08-11T06:26:46.916Z,14.64
2017-08-11T06:27:56.447Z,14.77
2017-08-11T06:29:06.448Z,14.62
2017-08-11T06:30:15.659Z,14.69
2017-08-11T06:31:24.865Z,14.62
2017-08-11T06:32:34.391Z,14.62
2017-08-11T06:33:43.919Z,14.57
2017-08-11T06:34:53.545Z,14.68
2017-08-11T06:36:03.077Z,14.72
2017-08-11T06:37:12.610Z,14.75
2017-08-11T06:38:21.821Z,14.62
2017-08-11T06:39:31.348Z,14.73
2017-08-11T06:40:40.721Z,14.72
2017-08-11T06:41:50.246Z,14.62
2017-08-11T06:42:59.780Z,14.64
2017-08-11T06:44:09.955Z,14.65
2017-08-11T06:45:19.163Z,14.72
2017-08-11T06:46:28.421Z,14.88
2017-08-11T06:47:38.271Z,14.72
2017-08-11T06:48:47.798Z,14.69
2017-08-11T06:49:57.024Z,14.73
2017-08-11T06:51:05.909Z,14.7
2017-08-11T06:52:15.363Z,14.51
2017-08-11T06:53:24.570Z,14.51
2017-08-11T06:54:34.426Z,14.6
2017-08-11T06:55:43.631Z,14.52
2017-08-11T06:56:53.162Z,14.55
2017-08-11T06:58:02.094Z,14.52
2017-08-11T06:59:11.301Z,14.58
2017-08-11T07:00:20.506Z,14.57
2017-08-11T07:01:29.390Z,14.64
2017-08-11T07:02:39.246Z,14.55
2017-08-11T07:03:48.450Z,14.64
2017-08-11T07:04:57.988Z,14.65
2017-08-11T07:06:07.518Z,14.64
2017-08-11T07:07:16.729Z,14.75
2017-08-11T07:08:26.589Z,14.75
2017-08-11T07:09:36.419Z,14.61
2017-08-11T07:10:45.628Z,14.69
2017-08-11T07:11:54.837Z,14.78
2017-08-11T07:13:04.374Z,14.68
2017-08-11T07:14:13.579Z,14.52
2017-08-11T07:15:22.944Z,14.64
2017-08-11T07:16:32.482Z,14.73
2017-08-11T07:17:41.709Z,14.65
2017-08-11T07:18:51.562Z,14.68
2017-08-11T07:20:01.090Z,14.72
2017-08-11T07:21:10.507Z,14.73
2017-08-11T07:22:19.717Z,14.7
2017-08-11T07:23:28.922Z,14.64
2017-08-11T07:24:38.131Z,14.89
2017-08-11T07:25:47.668Z,14.78
2017-08-11T07:26:57.348Z,14.73
2017-08-11T07:28:06.879Z,14.73
2017-08-11T07:29:16.430Z,14.77
2017-08-11T07:30:25.637Z,14.83
2017-08-11T07:31:34.528Z,14.83
2017-08-11T07:32:43.784Z,14.92
2017-08-11T07:33:53.649Z,14.78
2017-08-11T07:35:02.854Z,14.7
2017-08-11T07:36:12.062Z,14.8
2017-08-11T07:37:21.589Z,14.77
2017-08-11T07:38:31.414Z,14.73
2017-08-11T07:39:40.949Z,14.86
2017-08-11T07:40:50.157Z,14.81
2017-08-11T07:41:59.051Z,14.86
2017-08-11T07:43:08.262Z,14.83
2017-08-11T07:44:17.678Z,14.83
2017-08-11T07:45:26.564Z,14.88
2017-08-11T07:46:36.094Z,14.84
2017-08-11T07:47:45.626Z,14.88
2017-08-11T07:48:54.830Z,14.92
2017-08-11T07:50:04.518Z,14.99
2017-08-11T07:51:14.049Z,14.89
2017-08-11T07:52:23.909Z,14.81
2017-08-11T07:53:32.821Z,14.84
2017-08-11T07:54:42.031Z,14.91
2017-08-11T07:55:51.764Z,15.1
2017-08-11T07:57:01.294Z,14.98
2017-08-11T07:58:10.177Z,14.94
2017-08-11T07:59:19.387Z,14.96
2017-08-11T08:00:28.928Z,15.09
2017-08-11T08:01:38.340Z,15.11
2017-08-11T08:02:47.550Z,14.98
2017-08-11T08:03:57.406Z,15.1
2017-08-11T08:05:06.612Z,14.98
2017-08-11T08:06:16.481Z,15.13
2017-08-11T08:07:25.990Z,15.07
2017-08-11T08:08:35.196Z,15.19
2017-08-11T08:09:45.058Z,15.03
2017-08-11T08:10:54.266Z,15.02
2017-08-11T08:12:03.475Z,15.11
2017-08-11T08:13:13.058Z,15.11
2017-08-11T08:14:22.599Z,15.28
2017-08-11T08:15:32.130Z,15.23
2017-08-11T08:16:41.017Z,15.31
2017-08-11T08:17:49.899Z,15.23
2017-08-11T08:18:59.530Z,15.38
2017-08-11T08:20:10.056Z,15.38
2017-08-11T08:21:19.271Z,15.49
2017-08-11T08:22:28.809Z,15.35
2017-08-11T08:23:38.663Z,15.38
2017-08-11T08:24:48.500Z,15.36
2017-08-11T08:25:57.711Z,15.39
2017-08-11T08:27:07.249Z,15.49
2017-08-11T08:28:16.780Z,15.47
2017-08-11T08:29:26.311Z,15.49
2017-08-11T08:30:35.245Z,15.5
2017-08-11T08:31:44.127Z,15.51
2017-08-11T08:32:53.341Z,15.62
2017-08-11T08:34:02.549Z,15.72
2017-08-11T08:35:12.077Z,15.65
2017-08-11T08:36:21.612Z,15.74
2017-08-11T08:37:31.146Z,15.78
2017-08-11T08:38:41.009Z,15.64
2017-08-11T08:39:50.539Z,15.68
2017-08-11T08:41:00.069Z,15.69
2017-08-11T08:42:09.702Z,15.75
2017-08-11T08:43:19.233Z,15.76
2017-08-11T08:44:28.120Z,15.76
2017-08-11T08:45:37.971Z,15.82
2017-08-11T08:46:47.831Z,15.75
2017-08-11T08:47:57.117Z,15.76
2017-08-11T08:49:06.662Z,15.82
2017-08-11T08:50:16.533Z,15.94
2017-08-11T08:51:26.069Z,15.94
2017-08-11T08:52:35.284Z,16.01
2017-08-11T08:53:44.645Z,16.02
2017-08-11T08:54:54.182Z,15.97
2017-08-11T08:56:03.718Z,16.04
2017-08-11T08:57:13.246Z,16.08
2017-08-11T08:58:22.777Z,16.05
2017-08-11T08:59:32.455Z,16
2017-08-11T09:00:41.341Z,15.96
2017-08-11T09:01:50.552Z,16.17
2017-08-11T09:02:59.760Z,16
2017-08-11T09:04:08.969Z,16.05
2017-08-11T09:05:18.327Z,15.93
2017-08-11T09:06:27.211Z,16.15
2017-08-11T09:07:36.746Z,16
2017-08-11T09:08:45.956Z,15.93
2017-08-11T09:09:55.824Z,15.97
2017-08-11T09:11:05.358Z,16.07
2017-08-11T09:12:14.266Z,15.94
2017-08-11T09:13:23.800Z,15.97
2017-08-11T09:14:33.334Z,15.96
2017-08-11T09:15:42.545Z,15.93
2017-08-11T09:16:52.056Z,15.96
2017-08-11T09:18:01.264Z,16.21
2017-08-11T09:19:10.468Z,16.25
2017-08-11T09:20:20.000Z,16.02
2017-08-11T09:21:29.534Z,16.12
2017-08-11T09:22:38.795Z,16.11
2017-08-11T09:23:48.650Z,16.33
2017-08-11T09:24:57.859Z,16.34
2017-08-11T09:26:07.073Z,16.11
2017-08-11T09:27:16.610Z,16.08
2017-08-11T09:28:25.801Z,15.93
2017-08-11T09:29:35.341Z,16.05
2017-08-11T09:30:44.881Z,15.92
2017-08-11T09:31:54.089Z,16.14
2017-08-11T09:33:03.296Z,16.17
2017-08-11T09:34:12.702Z,16.08
2017-08-11T09:35:21.594Z,16
2017-08-11T09:36:31.459Z,16.02
2017-08-11T09:37:40.667Z,16.04
2017-08-11T09:38:49.892Z,15.97
2017-08-11T09:40:00.000Z,15.96
2017-08-11T09:41:10.179Z,16.01
2017-08-11T09:42:20.360Z,16.05
2017-08-11T09:43:29.888Z,16.11
2017-08-11T09:44:39.416Z,15.9
2017-08-11T09:45:48.353Z,15.94
2017-08-11T09:46:58.204Z,15.97
2017-08-11T09:48:07.737Z,15.94
2017-08-11T09:49:16.945Z,15.97
2017-08-11T09:50:26.797Z,15.97
2017-08-11T09:51:36.627Z,15.97
2017-08-11T09:52:46.158Z,16.02
2017-08-11T09:53:55.368Z,15.94
2017-08-11T09:55:05.546Z,16.12
2017-08-11T09:56:14.757Z,15.96
2017-08-11T09:57:24.121Z,16.05
2017-08-11T09:58:33.663Z,16.23
2017-08-11T09:59:42.544Z,16.14
2017-08-11T10:00:52.401Z,16.04
2017-08-11T10:02:01.285Z,16.02
2017-08-11T10:03:10.912Z,16.08
2017-08-11T10:04:19.801Z,16.05
2017-08-11T10:05:29.014Z,16.05
2017-08-11T10:06:38.873Z,16.12
2017-08-11T10:07:48.080Z,15.96
2017-08-11T10:08:57.344Z,15.97
2017-08-11T10:10:06.888Z,16.01
2017-08-11T10:11:16.446Z,16.02
2017-08-11T10:12:25.977Z,16.05
2017-08-11T10:13:34.862Z,16.05
2017-08-11T10:14:43.752Z,16.02
2017-08-11T10:15:53.283Z,16
2017-08-11T10:17:02.165Z,16.12
2017-08-11T10:18:11.045Z,16.01
2017-08-11T10:19:20.575Z,16.02
2017-08-11T10:20:30.039Z,16.02
2017-08-11T10:21:39.279Z,16.11
2017-08-11T10:22:48.486Z,16.02
2017-08-11T10:23:57.371Z,15.93
2017-08-11T10:25:06.902Z,15.93
2017-08-11T10:26:16.686Z,15.86
2017-08-11T10:27:26.214Z,15.9
2017-08-11T10:28:35.473Z,15.9
2017-08-11T10:29:45.007Z,16
2017-08-11T10:30:53.915Z,15.92
2017-08-11T10:32:03.171Z,15.92
2017-08-11T10:33:12.382Z,15.93
2017-08-11T10:34:21.919Z,15.96
2017-08-11T10:35:31.451Z,15.97
2017-08-11T10:36:40.984Z,16.01
2017-08-11T10:37:50.244Z,15.93
2017-08-11T10:38:59.128Z,16.04
2017-08-11T10:40:08.657Z,16.07
2017-08-11T10:41:17.864Z,16.02
2017-08-11T10:42:28.047Z,16.27
2017-08-11T10:43:37.082Z,15.97
2017-08-11T10:44:46.935Z,15.96
2017-08-11T10:45:56.789Z,15.94
2017-08-11T10:47:05.996Z,16.01
2017-08-11T10:48:15.846Z,15.82
2017-08-11T10:49:25.487Z,15.76
2017-08-11T10:50:35.349Z,15.82
2017-08-11T10:51:44.880Z,15.86
2017-08-11T10:52:54.087Z,15.87
2017-08-11T10:54:03.293Z,15.84
2017-08-11T10:55:12.554Z,15.9
2017-08-11T10:56:21.760Z,15.86
2017-08-11T10:57:30.974Z,15.83
2017-08-11T10:58:40.504Z,15.78
2017-08-11T10:59:50.038Z,15.86
2017-08-11T11:00:59.621Z,15.84
2017-08-11T11:02:09.154Z,15.83
2017-08-11T11:03:19.333Z,16
2017-08-11T11:04:28.542Z,15.93
2017-08-11T11:05:37.757Z,15.84
2017-08-11T11:06:47.333Z,15.97
2017-08-11T11:07:56.544Z,15.9
2017-08-11T11:09:06.074Z,15.86
2017-08-11T11:10:15.280Z,15.8
2017-08-11T11:11:24.810Z,15.86
2017-08-11T11:12:34.497Z,15.86
2017-08-11T11:13:43.383Z,15.87
2017-08-11T11:14:52.279Z,15.82
2017-08-11T11:16:01.806Z,15.87
2017-08-11T11:17:11.703Z,15.97
2017-08-11T11:18:21.431Z,15.94
2017-08-11T11:19:30.644Z,15.94
2017-08-11T11:20:39.850Z,15.9
2017-08-11T11:21:48.731Z,15.92
2017-08-11T11:22:58.261Z,15.86
2017-08-11T11:24:07.723Z,15.92
2017-08-11T11:25:16.929Z,15.97
2017-08-11T11:26:26.786Z,15.97
2017-08-11T11:27:36.319Z,15.96
2017-08-11T11:28:45.531Z,16.01
2017-08-11T11:29:54.942Z,16
2017-08-11T11:31:04.149Z,15.96
2017-08-11T11:32:14.014Z,15.96
2017-08-11T11:33:23.224Z,15.86
2017-08-11T11:34:33.085Z,15.83
2017-08-11T11:35:42.768Z,15.94
2017-08-11T11:36:51.981Z,15.94
2017-08-11T11:38:01.840Z,15.89
2017-08-11T11:39:11.693Z,15.93
2017-08-11T11:40:20.901Z,16.01
2017-08-11T11:41:31.208Z,15.92
2017-08-11T11:42:40.735Z,15.96
2017-08-11T11:43:50.269Z,15.96
2017-08-11T11:44:59.477Z,15.96
2017-08-11T11:46:09.330Z,16
2017-08-11T11:47:19.016Z,15.97
2017-08-11T11:48:27.899Z,16.04
2017-08-11T11:49:37.752Z,15.97
2017-08-11T11:50:46.970Z,16.02
2017-08-11T11:51:56.501Z,16.04
2017-08-11T11:53:05.860Z,16.08
2017-08-11T11:54:15.391Z,16.11
2017-08-11T11:55:25.259Z,16.09
2017-08-11T11:56:34.792Z,16.34
2017-08-11T11:57:44.323Z,16.25
2017-08-11T11:58:54.528Z,16.25
2017-08-11T12:00:04.061Z,16.33
2017-08-11T12:01:13.270Z,16.31
2017-08-11T12:02:22.809Z,16.39
2017-08-11T12:03:32.671Z,16.48
2017-08-11T12:04:41.606Z,16.52
2017-08-11T12:05:50.491Z,16.48
2017-08-11T12:07:00.030Z,16.61
2017-08-11T12:08:09.564Z,16.45
2017-08-11T12:09:19.097Z,16.48
2017-08-11T12:10:27.982Z,16.75
2017-08-11T12:11:37.192Z,16.71
2017-08-11T12:12:46.402Z,16.6
2017-08-11T12:13:55.610Z,16.63
2017-08-11T12:15:04.505Z,16.56
2017-08-11T12:16:13.714Z,16.46
2017-08-11T12:17:23.897Z,16.49
2017-08-11T12:18:33.110Z,16.49
2017-08-11T12:19:41.994Z,16.48
2017-08-11T12:20:51.882Z,16.49
2017-08-11T12:22:01.435Z,16.46
2017-08-11T12:23:10.642Z,16.5
2017-08-11T12:24:20.185Z,16.45
2017-08-11T12:25:29.726Z,16.53
2017-08-11T12:26:39.579Z,16.6
2017-08-11T12:27:48.803Z,16.48
2017-08-11T12:28:58.332Z,16.52
2017-08-11T12:30:07.864Z,16.39
2017-08-11T12:31:17.418Z,16.33
2017-08-11T12:32:26.950Z,16.38
2017-08-11T12:33:36.486Z,16.52
2017-08-11T12:34:45.369Z,16.39
2017-08-11T12:35:54.730Z,16.46
2017-08-11T12:37:03.938Z,16.41
2017-08-11T12:38:13.472Z,16.43
2017-08-11T12:39:22.710Z,16.31
2017-08-11T12:40:31.597Z,16.3
2017-08-11T12:41:41.286Z,16.28
2017-08-11T12:42:50.818Z,16.34
2017-08-11T12:44:00.027Z,16.45
2017-08-11T12:45:09.238Z,16.38
2017-08-11T12:46:18.448Z,16.35
2017-08-11T12:47:27.810Z,16.3
2017-08-11T12:48:37.347Z,16.31
2017-08-11T12:49:47.544Z,16.3
2017-08-11T12:50:56.753Z,16.28
2017-08-11T12:52:05.647Z,16.33
2017-08-11T12:53:14.919Z,16.38
2017-08-11T12:54:25.428Z,16.43
2017-08-11T12:55:34.961Z,16.35
2017-08-11T12:56:44.821Z,16.5
2017-08-11T12:57:54.037Z,16.38
2017-08-11T12:59:04.199Z,16.39
2017-08-11T13:00:13.735Z,16.39
2017-08-11T13:01:23.594Z,16.38
2017-08-11T13:02:32.806Z,16.42
2017-08-11T13:03:42.018Z,16.45
2017-08-11T13:04:51.428Z,16.5
2017-08-11T13:06:00.645Z,16.56
2017-08-11T13:07:10.179Z,16.48
2017-08-11T13:08:19.064Z,16.5
2017-08-11T13:09:28.918Z,16.5
2017-08-11T13:10:38.202Z,16.53
2017-08-11T13:11:48.055Z,16.5
2017-08-11T13:12:57.583Z,16.46
2017-08-11T13:14:06.798Z,16.49
2017-08-11T13:15:16.009Z,16.45
2017-08-11T13:16:25.365Z,16.46
2017-08-11T13:17:34.263Z,16.53
2017-08-11T13:18:43.886Z,16.66
2017-08-11T13:19:52.780Z,16.63
2017-08-11T13:21:02.312Z,16.61
2017-08-11T13:22:11.823Z,16.61
2017-08-11T13:23:21.680Z,16.67
2017-08-11T13:24:31.211Z,16.75
2017-08-11T13:25:40.426Z,16.73
2017-08-11T13:26:49.637Z,16.75
2017-08-11T13:27:58.896Z,16.73
2017-08-11T13:29:08.425Z,16.76
2017-08-11T13:30:17.969Z,16.78
2017-08-11T13:31:28.149Z,16.78
2017-08-11T13:32:38.342Z,16.67
2017-08-11T13:33:48.023Z,16.88
2017-08-11T13:34:56.910Z,16.75
2017-08-11T13:36:05.799Z,16.68
2017-08-11T13:37:15.346Z,16.66
2017-08-11T13:38:25.199Z,16.67
2017-08-11T13:39:35.354Z,16.79
2017-08-11T13:40:44.564Z,16.76
2017-08-11T13:41:54.701Z,16.78
2017-08-11T13:43:04.902Z,16.7
2017-08-11T13:44:14.428Z,16.73
2017-08-11T13:45:23.466Z,16.68
2017-08-11T13:46:33.006Z,16.68
2017-08-11T13:47:42.536Z,16.79
2017-08-11T13:48:52.072Z,16.75
2017-08-11T13:50:01.607Z,16.76
2017-08-11T13:51:11.074Z,16.82
2017-08-11T13:52:19.965Z,16.88
2017-08-11T13:53:29.499Z,16.76
2017-08-11T13:54:38.717Z,16.85
2017-08-11T13:55:47.934Z,16.73
2017-08-11T13:56:58.267Z,16.79
2017-08-11T13:58:07.152Z,16.79
2017-08-11T13:59:17.015Z,16.85
2017-08-11T14:00:26.557Z,16.81
2017-08-11T14:01:36.106Z,16.76
2017-08-11T14:02:45.362Z,16.93
2017-08-11T14:03:54.572Z,16.83
2017-08-11T14:05:03.781Z,16.82
2017-08-11T14:06:13.638Z,16.86
2017-08-11T14:07:22.535Z,16.83
2017-08-11T14:08:31.790Z,16.83
2017-08-11T14:09:40.676Z,16.75
2017-08-11T14:10:49.888Z,16.89
2017-08-11T14:11:59.416Z,16.89
2017-08-11T14:13:09.596Z,16.91
2017-08-11T14:14:19.000Z,16.89
2017-08-11T14:15:28.210Z,16.94
2017-08-11T14:16:38.066Z,16.97
2017-08-11T14:17:47.607Z,16.94
2017-08-11T14:18:57.138Z,16.98
2017-08-11T14:20:06.550Z,16.89
2017-08-11T14:21:15.760Z,16.86
2017-08-11T14:22:25.489Z,16.97
2017-08-11T14:23:34.907Z,17.08
2017-08-11T14:24:44.796Z,16.91
2017-08-11T14:25:54.010Z,16.96
2017-08-11T14:27:03.865Z,16.91
2017-08-11T14:28:13.074Z,16.94
2017-08-11T14:29:22.290Z,16.94
2017-08-11T14:30:31.507Z,16.96
2017-08-11T14:31:41.460Z,16.93
2017-08-11T14:32:50.667Z,16.97
2017-08-11T14:34:00.525Z,16.97
2017-08-11T14:35:10.383Z,16.97
2017-08-11T14:36:19.594Z,16.93
2017-08-11T14:37:29.337Z,16.91
2017-08-11T14:38:38.547Z,16.93
2017-08-11T14:39:48.082Z,16.86
2017-08-11T14:40:57.616Z,16.85
2017-08-11T14:42:06.831Z,16.96
2017-08-11T14:43:15.769Z,16.85
2017-08-11T14:44:25.953Z,16.91
2017-08-11T14:45:35.492Z,16.83
2017-08-11T14:46:44.720Z,16.88
2017-08-11T14:47:54.252Z,16.86
2017-08-11T14:49:04.034Z,16.81
2017-08-11T14:50:13.248Z,16.79
2017-08-11T14:51:23.111Z,16.86
2017-08-11T14:52:32.323Z,16.85
2017-08-11T14:53:41.877Z,16.85
2017-08-11T14:54:51.519Z,16.73
2017-08-11T14:56:01.053Z,16.88
2017-08-11T14:57:10.587Z,16.79